sensor_id;sensor_type;location;lat;lon;timestamp;P1;durP1;ratioP1;P2;durP2;ratioP2
2792;SDS011;1404;49.650;8.574;2022-07-04T00:00:15;4.90;;;2.07;;
2792;SDS011;1404;49.650;8.574;2022-07-04T00:02:42;6.40;;;1.90;;
2792;SDS011;1404;49.650;8.574;2022-07-04T00:05:08;5.73;;;1.77;;
2792;SDS011;1404;49.650;8.574;2022-07-04T00:07:38;4.13;;;2.03;;
2792;SDS011;1404;49.650;8.574;2022-07-04T00:10:04;6.03;;;1.93;;
2792;SDS011;1404;49.650;8.574;2022-07-04T00:12:31;4.53;;;1.60;;
2792;SDS011;1404;49.650;8.574;2022-07-04T00:14:57;6.10;;;1.80;;
2792;SDS011;1404;49.650;8.574;2022-07-04T00:17:23;1.83;;;1.73;;
2792;SDS011;1404;49.650;8.574;2022-07-04T00:19:49;1.70;;;1.57;;
2792;SDS011;1404;49.650;8.574;2022-07-04T00:22:15;5.63;;;1.83;;
2792;SDS011;1404;49.650;8.574;2022-07-04T00:24:41;5.23;;;1.67;;
2792;SDS011;1404;49.650;8.574;2022-07-04T00:27:07;7.00;;;2.00;;
2792;SDS011;1404;49.650;8.574;2022-07-04T00:29:33;4.07;;;1.73;;
2792;SDS011;1404;49.650;8.574;2022-07-04T00:31:59;4.47;;;1.70;;
2792;SDS011;1404;49.650;8.574;2022-07-04T00:34:25;4.07;;;1.93;;
2792;SDS011;1404;49.650;8.574;2022-07-04T00:36:52;5.07;;;1.97;;
2792;SDS011;1404;49.650;8.574;2022-07-04T00:39:18;3.07;;;1.80;;
2792;SDS011;1404;49.650;8.574;2022-07-04T00:41:44;3.77;;;1.60;;
2792;SDS011;1404;49.650;8.574;2022-07-04T00:44:11;3.27;;;2.07;;
2792;SDS011;1404;49.650;8.574;2022-07-04T00:46:37;1.80;;;1.70;;
2792;SDS011;1404;49.650;8.574;2022-07-04T00:49:03;3.93;;;1.83;;
2792;SDS011;1404;49.650;8.574;2022-07-04T00:51:30;3.63;;;1.80;;
2792;SDS011;1404;49.650;8.574;2022-07-04T00:53:56;5.53;;;1.70;;
2792;SDS011;1404;49.650;8.574;2022-07-04T00:56:22;3.00;;;1.80;;
2792;SDS011;1404;49.650;8.574;2022-07-04T00:58:49;2.67;;;2.13;;
2792;SDS011;1404;49.650;8.574;2022-07-04T01:01:16;2.43;;;2.17;;
2792;SDS011;1404;49.650;8.574;2022-07-04T01:03:42;4.50;;;1.90;;
2792;SDS011;1404;49.650;8.574;2022-07-04T01:06:08;4.40;;;1.63;;
2792;SDS011;1404;49.650;8.574;2022-07-04T01:08:37;2.30;;;2.10;;
2792;SDS011;1404;49.650;8.574;2022-07-04T01:11:03;2.20;;;1.30;;
2792;SDS011;1404;49.650;8.574;2022-07-04T01:13:29;3.53;;;1.80;;
2792;SDS011;1404;49.650;8.574;2022-07-04T01:15:55;1.90;;;1.63;;
2792;SDS011;1404;49.650;8.574;2022-07-04T01:18:21;2.90;;;1.90;;
2792;SDS011;1404;49.650;8.574;2022-07-04T01:20:47;1.80;;;1.40;;
2792;SDS011;1404;49.650;8.574;2022-07-04T01:23:13;1.77;;;1.50;;
2792;SDS011;1404;49.650;8.574;2022-07-04T01:25:39;1.53;;;1.43;;
2792;SDS011;1404;49.650;8.574;2022-07-04T01:28:05;8.13;;;1.77;;
2792;SDS011;1404;49.650;8.574;2022-07-04T01:30:32;7.83;;;1.60;;
2792;SDS011;1404;49.650;8.574;2022-07-04T01:32:58;7.60;;;1.83;;
2792;SDS011;1404;49.650;8.574;2022-07-04T01:35:24;2.77;;;1.40;;
2792;SDS011;1404;49.650;8.574;2022-07-04T01:37:50;2.80;;;1.47;;
2792;SDS011;1404;49.650;8.574;2022-07-04T01:40:16;4.70;;;1.83;;
2792;SDS011;1404;49.650;8.574;2022-07-04T01:42:42;4.40;;;1.57;;
2792;SDS011;1404;49.650;8.574;2022-07-04T01:45:09;1.57;;;1.27;;
2792;SDS011;1404;49.650;8.574;2022-07-04T01:47:36;5.30;;;1.70;;
2792;SDS011;1404;49.650;8.574;2022-07-04T01:50:03;4.53;;;1.50;;
2792;SDS011;1404;49.650;8.574;2022-07-04T01:52:29;7.50;;;1.57;;
2792;SDS011;1404;49.650;8.574;2022-07-04T01:54:55;2.93;;;1.40;;
2792;SDS011;1404;49.650;8.574;2022-07-04T01:57:21;2.87;;;1.37;;
2792;SDS011;1404;49.650;8.574;2022-07-04T01:59:47;5.80;;;1.57;;
2792;SDS011;1404;49.650;8.574;2022-07-04T02:02:32;3.90;;;1.87;;
2792;SDS011;1404;49.650;8.574;2022-07-04T02:04:58;6.73;;;1.80;;
2792;SDS011;1404;49.650;8.574;2022-07-04T02:07:24;6.10;;;1.87;;
2792;SDS011;1404;49.650;8.574;2022-07-04T02:09:50;4.20;;;1.50;;
2792;SDS011;1404;49.650;8.574;2022-07-04T02:12:16;1.83;;;1.53;;
2792;SDS011;1404;49.650;8.574;2022-07-04T02:15:00;2.17;;;1.40;;
2792;SDS011;1404;49.650;8.574;2022-07-04T02:17:26;4.10;;;1.77;;
2792;SDS011;1404;49.650;8.574;2022-07-04T02:19:52;2.83;;;1.47;;
2792;SDS011;1404;49.650;8.574;2022-07-04T02:22:18;2.73;;;1.60;;
2792;SDS011;1404;49.650;8.574;2022-07-04T02:24:44;4.50;;;1.70;;
2792;SDS011;1404;49.650;8.574;2022-07-04T02:27:10;2.30;;;1.30;;
2792;SDS011;1404;49.650;8.574;2022-07-04T02:29:36;2.50;;;1.23;;
2792;SDS011;1404;49.650;8.574;2022-07-04T02:32:03;3.00;;;1.70;;
2792;SDS011;1404;49.650;8.574;2022-07-04T02:34:29;3.00;;;1.37;;
2792;SDS011;1404;49.650;8.574;2022-07-04T02:36:55;3.23;;;1.97;;
2792;SDS011;1404;49.650;8.574;2022-07-04T02:39:21;8.80;;;1.97;;
2792;SDS011;1404;49.650;8.574;2022-07-04T02:41:47;8.03;;;1.63;;
2792;SDS011;1404;49.650;8.574;2022-07-04T02:44:13;3.57;;;1.80;;
2792;SDS011;1404;49.650;8.574;2022-07-04T02:46:39;4.33;;;1.43;;
2792;SDS011;1404;49.650;8.574;2022-07-04T02:49:05;3.67;;;1.67;;
2792;SDS011;1404;49.650;8.574;2022-07-04T02:51:31;1.97;;;1.87;;
2792;SDS011;1404;49.650;8.574;2022-07-04T02:53:57;2.40;;;1.93;;
2792;SDS011;1404;49.650;8.574;2022-07-04T02:56:23;2.20;;;1.77;;
2792;SDS011;1404;49.650;8.574;2022-07-04T02:58:49;5.67;;;1.80;;
2792;SDS011;1404;49.650;8.574;2022-07-04T03:01:15;3.97;;;2.50;;
2792;SDS011;1404;49.650;8.574;2022-07-04T03:03:43;3.10;;;1.77;;
2792;SDS011;1404;49.650;8.574;2022-07-04T03:06:09;4.30;;;1.53;;
2792;SDS011;1404;49.650;8.574;2022-07-04T03:08:36;4.83;;;2.20;;
2792;SDS011;1404;49.650;8.574;2022-07-04T03:11:02;6.87;;;1.87;;
2792;SDS011;1404;49.650;8.574;2022-07-04T03:13:28;2.73;;;1.80;;
2792;SDS011;1404;49.650;8.574;2022-07-04T03:15:54;3.37;;;1.90;;
2792;SDS011;1404;49.650;8.574;2022-07-04T03:18:20;4.23;;;1.90;;
2792;SDS011;1404;49.650;8.574;2022-07-04T03:20:46;4.27;;;2.00;;
2792;SDS011;1404;49.650;8.574;2022-07-04T03:23:12;2.67;;;1.70;;
2792;SDS011;1404;49.650;8.574;2022-07-04T03:25:38;3.27;;;2.13;;
2792;SDS011;1404;49.650;8.574;2022-07-04T03:28:07;3.43;;;2.17;;
2792;SDS011;1404;49.650;8.574;2022-07-04T03:30:34;2.07;;;1.87;;
2792;SDS011;1404;49.650;8.574;2022-07-04T03:33:00;2.37;;;2.03;;
2792;SDS011;1404;49.650;8.574;2022-07-04T03:35:26;3.50;;;2.20;;
2792;SDS011;1404;49.650;8.574;2022-07-04T03:37:53;2.97;;;2.20;;
2792;SDS011;1404;49.650;8.574;2022-07-04T03:40:19;1.80;;;1.70;;
2792;SDS011;1404;49.650;8.574;2022-07-04T03:42:45;2.80;;;2.50;;
2792;SDS011;1404;49.650;8.574;2022-07-04T03:45:12;3.50;;;1.93;;
2792;SDS011;1404;49.650;8.574;2022-07-04T03:47:38;2.37;;;2.13;;
2792;SDS011;1404;49.650;8.574;2022-07-04T03:50:04;7.83;;;2.10;;
2792;SDS011;1404;49.650;8.574;2022-07-04T03:52:30;7.50;;;2.60;;
2792;SDS011;1404;49.650;8.574;2022-07-04T03:54:56;2.17;;;1.97;;
2792;SDS011;1404;49.650;8.574;2022-07-04T03:57:22;6.00;;;2.43;;
2792;SDS011;1404;49.650;8.574;2022-07-04T03:59:48;2.33;;;2.13;;
2792;SDS011;1404;49.650;8.574;2022-07-04T04:02:14;4.57;;;2.40;;
2792;SDS011;1404;49.650;8.574;2022-07-04T04:04:40;6.87;;;2.30;;
2792;SDS011;1404;49.650;8.574;2022-07-04T04:07:25;3.07;;;2.37;;
2792;SDS011;1404;49.650;8.574;2022-07-04T04:09:51;5.57;;;3.00;;
2792;SDS011;1404;49.650;8.574;2022-07-04T04:12:17;5.77;;;2.80;;
2792;SDS011;1404;49.650;8.574;2022-07-04T04:14:43;8.97;;;2.47;;
2792;SDS011;1404;49.650;8.574;2022-07-04T04:17:09;3.10;;;2.40;;
2792;SDS011;1404;49.650;8.574;2022-07-04T04:19:35;3.53;;;3.00;;
2792;SDS011;1404;49.650;8.574;2022-07-04T04:22:01;10.63;;;3.07;;
2792;SDS011;1404;49.650;8.574;2022-07-04T04:24:27;3.00;;;2.27;;
2792;SDS011;1404;49.650;8.574;2022-07-04T04:26:53;4.23;;;2.97;;
2792;SDS011;1404;49.650;8.574;2022-07-04T04:29:19;5.60;;;3.30;;
2792;SDS011;1404;49.650;8.574;2022-07-04T04:31:45;2.67;;;2.47;;
2792;SDS011;1404;49.650;8.574;2022-07-04T04:34:11;5.17;;;2.80;;
2792;SDS011;1404;49.650;8.574;2022-07-04T04:36:37;8.83;;;3.10;;
2792;SDS011;1404;49.650;8.574;2022-07-04T04:39:03;3.03;;;2.73;;
2792;SDS011;1404;49.650;8.574;2022-07-04T04:41:29;8.60;;;2.63;;
2792;SDS011;1404;49.650;8.574;2022-07-04T04:43:55;3.17;;;2.87;;
2792;SDS011;1404;49.650;8.574;2022-07-04T04:46:21;4.97;;;3.10;;
2792;SDS011;1404;49.650;8.574;2022-07-04T04:48:47;2.70;;;2.50;;
2792;SDS011;1404;49.650;8.574;2022-07-04T04:51:13;6.80;;;3.40;;
2792;SDS011;1404;49.650;8.574;2022-07-04T04:53:39;3.80;;;2.90;;
2792;SDS011;1404;49.650;8.574;2022-07-04T04:56:05;4.23;;;2.83;;
2792;SDS011;1404;49.650;8.574;2022-07-04T04:58:31;5.50;;;3.10;;
2792;SDS011;1404;49.650;8.574;2022-07-04T05:00:57;3.73;;;2.50;;
2792;SDS011;1404;49.650;8.574;2022-07-04T05:03:23;5.87;;;2.80;;
2792;SDS011;1404;49.650;8.574;2022-07-04T05:05:49;2.97;;;2.63;;
2792;SDS011;1404;49.650;8.574;2022-07-04T05:08:16;3.30;;;2.70;;
2792;SDS011;1404;49.650;8.574;2022-07-04T05:10:42;4.17;;;2.70;;
2792;SDS011;1404;49.650;8.574;2022-07-04T05:13:08;5.43;;;3.83;;
2792;SDS011;1404;49.650;8.574;2022-07-04T05:15:34;4.57;;;2.50;;
2792;SDS011;1404;49.650;8.574;2022-07-04T05:18:00;5.60;;;3.10;;
2792;SDS011;1404;49.650;8.574;2022-07-04T05:20:26;5.60;;;2.83;;
2792;SDS011;1404;49.650;8.574;2022-07-04T05:22:52;7.33;;;3.07;;
2792;SDS011;1404;49.650;8.574;2022-07-04T05:25:21;7.77;;;2.83;;
2792;SDS011;1404;49.650;8.574;2022-07-04T05:27:47;7.00;;;3.00;;
2792;SDS011;1404;49.650;8.574;2022-07-04T05:30:13;4.43;;;3.13;;
2792;SDS011;1404;49.650;8.574;2022-07-04T05:32:40;3.43;;;2.73;;
2792;SDS011;1404;49.650;8.574;2022-07-04T05:35:07;5.10;;;1.93;;
2792;SDS011;1404;49.650;8.574;2022-07-04T05:37:33;5.20;;;3.20;;
2792;SDS011;1404;49.650;8.574;2022-07-04T05:39:59;5.60;;;3.00;;
2792;SDS011;1404;49.650;8.574;2022-07-04T05:42:25;4.23;;;2.20;;
2792;SDS011;1404;49.650;8.574;2022-07-04T05:44:51;3.40;;;3.03;;
2792;SDS011;1404;49.650;8.574;2022-07-04T05:47:17;3.27;;;2.97;;
2792;SDS011;1404;49.650;8.574;2022-07-04T05:49:44;4.23;;;3.50;;
2792;SDS011;1404;49.650;8.574;2022-07-04T05:52:09;4.03;;;2.50;;
2792;SDS011;1404;49.650;8.574;2022-07-04T05:54:36;6.87;;;3.77;;
2792;SDS011;1404;49.650;8.574;2022-07-04T05:57:02;5.13;;;3.23;;
2792;SDS011;1404;49.650;8.574;2022-07-04T05:59:28;4.73;;;3.10;;
2792;SDS011;1404;49.650;8.574;2022-07-04T06:01:55;5.63;;;2.40;;
2792;SDS011;1404;49.650;8.574;2022-07-04T06:04:21;4.87;;;3.10;;
2792;SDS011;1404;49.650;8.574;2022-07-04T06:06:47;5.50;;;3.00;;
2792;SDS011;1404;49.650;8.574;2022-07-04T06:09:13;3.93;;;2.77;;
2792;SDS011;1404;49.650;8.574;2022-07-04T06:11:39;4.23;;;3.40;;
2792;SDS011;1404;49.650;8.574;2022-07-04T06:14:05;8.00;;;3.90;;
2792;SDS011;1404;49.650;8.574;2022-07-04T06:16:31;4.07;;;3.10;;
2792;SDS011;1404;49.650;8.574;2022-07-04T06:18:57;4.10;;;3.37;;
2792;SDS011;1404;49.650;8.574;2022-07-04T06:21:23;5.03;;;3.57;;
2792;SDS011;1404;49.650;8.574;2022-07-04T06:23:49;6.27;;;3.23;;
2792;SDS011;1404;49.650;8.574;2022-07-04T06:26:15;3.83;;;2.90;;
2792;SDS011;1404;49.650;8.574;2022-07-04T06:28:41;4.47;;;2.87;;
2792;SDS011;1404;49.650;8.574;2022-07-04T06:31:07;4.60;;;2.50;;
2792;SDS011;1404;49.650;8.574;2022-07-04T06:33:34;6.70;;;3.60;;
2792;SDS011;1404;49.650;8.574;2022-07-04T06:36:20;6.20;;;3.20;;
2792;SDS011;1404;49.650;8.574;2022-07-04T06:38:46;6.50;;;2.80;;
2792;SDS011;1404;49.650;8.574;2022-07-04T06:41:12;3.80;;;3.50;;
2792;SDS011;1404;49.650;8.574;2022-07-04T06:43:39;3.63;;;2.40;;
2792;SDS011;1404;49.650;8.574;2022-07-04T06:46:05;6.50;;;3.73;;
2792;SDS011;1404;49.650;8.574;2022-07-04T06:48:31;4.63;;;2.73;;
2792;SDS011;1404;49.650;8.574;2022-07-04T06:50:57;2.87;;;2.30;;
2792;SDS011;1404;49.650;8.574;2022-07-04T06:53:23;4.43;;;3.20;;
2792;SDS011;1404;49.650;8.574;2022-07-04T06:55:49;3.83;;;2.93;;
2792;SDS011;1404;49.650;8.574;2022-07-04T06:58:15;5.43;;;2.50;;
2792;SDS011;1404;49.650;8.574;2022-07-04T07:00:41;2.83;;;2.53;;
2792;SDS011;1404;49.650;8.574;2022-07-04T07:03:09;4.00;;;2.80;;
2792;SDS011;1404;49.650;8.574;2022-07-04T07:05:35;3.83;;;2.63;;
2792;SDS011;1404;49.650;8.574;2022-07-04T07:08:05;4.00;;;2.80;;
2792;SDS011;1404;49.650;8.574;2022-07-04T07:10:31;4.03;;;2.97;;
2792;SDS011;1404;49.650;8.574;2022-07-04T07:13:01;2.50;;;2.33;;
2792;SDS011;1404;49.650;8.574;2022-07-04T07:15:27;3.63;;;3.20;;
2792;SDS011;1404;49.650;8.574;2022-07-04T07:17:53;3.50;;;2.93;;
2792;SDS011;1404;49.650;8.574;2022-07-04T07:20:19;2.63;;;2.20;;
2792;SDS011;1404;49.650;8.574;2022-07-04T07:22:45;4.30;;;2.00;;
2792;SDS011;1404;49.650;8.574;2022-07-04T07:25:11;3.87;;;2.33;;
2792;SDS011;1404;49.650;8.574;2022-07-04T07:27:38;3.10;;;2.60;;
2792;SDS011;1404;49.650;8.574;2022-07-04T07:30:06;5.10;;;2.47;;
2792;SDS011;1404;49.650;8.574;2022-07-04T07:32:32;7.80;;;3.03;;
2792;SDS011;1404;49.650;8.574;2022-07-04T07:34:58;2.10;;;1.90;;
2792;SDS011;1404;49.650;8.574;2022-07-04T07:37:24;4.93;;;2.20;;
2792;SDS011;1404;49.650;8.574;2022-07-04T07:39:51;2.93;;;2.67;;
2792;SDS011;1404;49.650;8.574;2022-07-04T07:42:17;4.13;;;2.33;;
2792;SDS011;1404;49.650;8.574;2022-07-04T07:44:43;6.23;;;2.20;;
2792;SDS011;1404;49.650;8.574;2022-07-04T07:47:11;4.20;;;2.20;;
2792;SDS011;1404;49.650;8.574;2022-07-04T07:49:38;3.83;;;2.27;;
2792;SDS011;1404;49.650;8.574;2022-07-04T07:52:04;4.53;;;1.50;;
2792;SDS011;1404;49.650;8.574;2022-07-04T07:54:30;4.53;;;2.10;;
2792;SDS011;1404;49.650;8.574;2022-07-04T07:56:56;6.03;;;1.90;;
2792;SDS011;1404;49.650;8.574;2022-07-04T07:59:22;3.97;;;2.20;;
2792;SDS011;1404;49.650;8.574;2022-07-04T08:01:48;2.77;;;1.60;;
2792;SDS011;1404;49.650;8.574;2022-07-04T08:04:14;2.83;;;1.70;;
2792;SDS011;1404;49.650;8.574;2022-07-04T08:07:00;4.00;;;1.77;;
2792;SDS011;1404;49.650;8.574;2022-07-04T08:09:26;2.23;;;1.70;;
2792;SDS011;1404;49.650;8.574;2022-07-04T08:11:52;2.70;;;1.80;;
2792;SDS011;1404;49.650;8.574;2022-07-04T08:14:18;1.87;;;1.67;;
2792;SDS011;1404;49.650;8.574;2022-07-04T08:16:44;4.23;;;1.40;;
2792;SDS011;1404;49.650;8.574;2022-07-04T08:19:10;4.57;;;1.73;;
2792;SDS011;1404;49.650;8.574;2022-07-04T08:21:36;4.00;;;1.90;;
2792;SDS011;1404;49.650;8.574;2022-07-04T08:24:02;3.53;;;1.50;;
2792;SDS011;1404;49.650;8.574;2022-07-04T08:26:28;2.17;;;1.73;;
2792;SDS011;1404;49.650;8.574;2022-07-04T08:28:54;1.70;;;1.60;;
2792;SDS011;1404;49.650;8.574;2022-07-04T08:31:23;5.50;;;1.53;;
2792;SDS011;1404;49.650;8.574;2022-07-04T08:33:50;3.00;;;1.83;;
2792;SDS011;1404;49.650;8.574;2022-07-04T08:36:16;5.30;;;1.97;;
2792;SDS011;1404;49.650;8.574;2022-07-04T08:38:42;2.00;;;1.87;;
2792;SDS011;1404;49.650;8.574;2022-07-04T08:41:08;2.07;;;1.87;;
2792;SDS011;1404;49.650;8.574;2022-07-04T08:43:34;3.40;;;2.00;;
2792;SDS011;1404;49.650;8.574;2022-07-04T08:46:05;2.20;;;1.90;;
2792;SDS011;1404;49.650;8.574;2022-07-04T08:48:32;5.53;;;1.60;;
2792;SDS011;1404;49.650;8.574;2022-07-04T08:51:04;4.97;;;1.80;;
2792;SDS011;1404;49.650;8.574;2022-07-04T08:53:33;9.70;;;2.27;;
2792;SDS011;1404;49.650;8.574;2022-07-04T08:56:03;1.87;;;1.73;;
2792;SDS011;1404;49.650;8.574;2022-07-04T08:58:47;2.97;;;2.03;;
2792;SDS011;1404;49.650;8.574;2022-07-04T09:01:14;2.73;;;1.60;;
2792;SDS011;1404;49.650;8.574;2022-07-04T09:03:41;4.00;;;2.23;;
2792;SDS011;1404;49.650;8.574;2022-07-04T09:06:08;2.60;;;2.20;;
2792;SDS011;1404;49.650;8.574;2022-07-04T09:08:34;5.00;;;1.90;;
2792;SDS011;1404;49.650;8.574;2022-07-04T09:11:00;3.80;;;1.67;;
2792;SDS011;1404;49.650;8.574;2022-07-04T09:13:27;7.83;;;2.93;;
2792;SDS011;1404;49.650;8.574;2022-07-04T09:15:53;2.07;;;1.87;;
2792;SDS011;1404;49.650;8.574;2022-07-04T09:20:56;1.57;;;1.47;;
2792;SDS011;1404;49.650;8.574;2022-07-04T09:23:23;6.23;;;2.30;;
2792;SDS011;1404;49.650;8.574;2022-07-04T09:25:49;3.80;;;1.70;;
2792;SDS011;1404;49.650;8.574;2022-07-04T09:28:31;2.70;;;2.17;;
2792;SDS011;1404;49.650;8.574;2022-07-04T09:30:57;2.50;;;1.80;;
2792;SDS011;1404;49.650;8.574;2022-07-04T09:33:42;2.80;;;1.50;;
2792;SDS011;1404;49.650;8.574;2022-07-04T09:36:13;3.70;;;1.50;;
2792;SDS011;1404;49.650;8.574;2022-07-04T09:38:39;3.10;;;1.50;;
2792;SDS011;1404;49.650;8.574;2022-07-04T09:41:05;3.63;;;1.70;;
2792;SDS011;1404;49.650;8.574;2022-07-04T09:44:03;4.93;;;1.60;;
2792;SDS011;1404;49.650;8.574;2022-07-04T09:46:30;2.03;;;1.80;;
2792;SDS011;1404;49.650;8.574;2022-07-04T09:48:56;3.13;;;2.17;;
2792;SDS011;1404;49.650;8.574;2022-07-04T09:54:24;10.00;;;1.80;;
2792;SDS011;1404;49.650;8.574;2022-07-04T09:56:53;3.13;;;1.40;;
2792;SDS011;1404;49.650;8.574;2022-07-04T09:59:20;4.00;;;1.70;;
2792;SDS011;1404;49.650;8.574;2022-07-04T10:01:46;2.20;;;2.00;;
2792;SDS011;1404;49.650;8.574;2022-07-04T10:04:13;3.20;;;2.37;;
2792;SDS011;1404;49.650;8.574;2022-07-04T10:06:40;4.60;;;1.50;;
2792;SDS011;1404;49.650;8.574;2022-07-04T10:09:12;6.67;;;2.17;;
2792;SDS011;1404;49.650;8.574;2022-07-04T10:11:39;2.90;;;1.70;;
2792;SDS011;1404;49.650;8.574;2022-07-04T10:14:06;2.77;;;1.80;;
2792;SDS011;1404;49.650;8.574;2022-07-04T10:16:32;3.27;;;2.27;;
2792;SDS011;1404;49.650;8.574;2022-07-04T10:18:58;6.13;;;2.00;;
2792;SDS011;1404;49.650;8.574;2022-07-04T10:21:25;2.60;;;1.80;;
2792;SDS011;1404;49.650;8.574;2022-07-04T10:23:51;4.50;;;2.03;;
2792;SDS011;1404;49.650;8.574;2022-07-04T10:26:18;5.30;;;1.93;;
2792;SDS011;1404;49.650;8.574;2022-07-04T10:28:44;1.73;;;1.47;;
2792;SDS011;1404;49.650;8.574;2022-07-04T10:31:12;2.20;;;1.60;;
2792;SDS011;1404;49.650;8.574;2022-07-04T10:33:38;4.00;;;1.80;;
2792;SDS011;1404;49.650;8.574;2022-07-04T10:36:12;2.70;;;1.37;;
2792;SDS011;1404;49.650;8.574;2022-07-04T10:41:15;3.10;;;1.57;;
2792;SDS011;1404;49.650;8.574;2022-07-04T10:54:01;1.90;;;1.17;;
2792;SDS011;1404;49.650;8.574;2022-07-04T10:58:56;1.57;;;1.17;;
2792;SDS011;1404;49.650;8.574;2022-07-04T11:01:23;4.63;;;1.20;;
2792;SDS011;1404;49.650;8.574;2022-07-04T11:03:52;1.93;;;1.30;;
2792;SDS011;1404;49.650;8.574;2022-07-04T11:11:59;3.17;;;1.40;;
2792;SDS011;1404;49.650;8.574;2022-07-04T11:14:44;1.30;;;1.00;;
2792;SDS011;1404;49.650;8.574;2022-07-04T11:17:15;2.83;;;1.23;;
2792;SDS011;1404;49.650;8.574;2022-07-04T11:19:41;1.40;;;1.20;;
2792;SDS011;1404;49.650;8.574;2022-07-04T11:22:08;3.87;;;1.20;;
2792;SDS011;1404;49.650;8.574;2022-07-04T11:24:36;5.43;;;1.73;;
2792;SDS011;1404;49.650;8.574;2022-07-04T11:27:02;2.73;;;1.83;;
2792;SDS011;1404;49.650;8.574;2022-07-04T11:29:29;2.90;;;1.27;;
2792;SDS011;1404;49.650;8.574;2022-07-04T11:31:56;1.20;;;1.10;;
2792;SDS011;1404;49.650;8.574;2022-07-04T11:34:22;5.40;;;1.70;;
2792;SDS011;1404;49.650;8.574;2022-07-04T11:36:50;6.90;;;2.17;;
2792;SDS011;1404;49.650;8.574;2022-07-04T11:39:20;1.20;;;1.10;;
2792;SDS011;1404;49.650;8.574;2022-07-04T11:41:50;3.03;;;1.40;;
2792;SDS011;1404;49.650;8.574;2022-07-04T11:44:36;2.83;;;1.33;;
2792;SDS011;1404;49.650;8.574;2022-07-04T11:52:14;1.73;;;1.10;;
2792;SDS011;1404;49.650;8.574;2022-07-04T11:54:44;1.23;;;1.13;;
2792;SDS011;1404;49.650;8.574;2022-07-04T11:59:36;2.50;;;1.47;;
2792;SDS011;1404;49.650;8.574;2022-07-04T12:02:16;4.10;;;1.77;;
2792;SDS011;1404;49.650;8.574;2022-07-04T12:04:42;3.43;;;1.60;;
2792;SDS011;1404;49.650;8.574;2022-07-04T12:07:09;7.53;;;1.50;;
2792;SDS011;1404;49.650;8.574;2022-07-04T12:09:36;4.27;;;1.60;;
2792;SDS011;1404;49.650;8.574;2022-07-04T12:12:02;1.47;;;1.37;;
2792;SDS011;1404;49.650;8.574;2022-07-04T12:14:28;8.03;;;1.27;;
2792;SDS011;1404;49.650;8.574;2022-07-04T12:17:10;5.73;;;1.50;;
2792;SDS011;1404;49.650;8.574;2022-07-04T12:19:36;3.10;;;1.50;;
2792;SDS011;1404;49.650;8.574;2022-07-04T12:22:03;3.13;;;1.37;;
2792;SDS011;1404;49.650;8.574;2022-07-04T12:24:39;4.43;;;1.30;;
2792;SDS011;1404;49.650;8.574;2022-07-04T12:27:05;2.20;;;1.30;;
2792;SDS011;1404;49.650;8.574;2022-07-04T12:29:31;1.43;;;1.10;;
2792;SDS011;1404;49.650;8.574;2022-07-04T12:31:57;3.70;;;1.30;;
2792;SDS011;1404;49.650;8.574;2022-07-04T12:34:24;3.00;;;1.50;;
2792;SDS011;1404;49.650;8.574;2022-07-04T12:36:56;1.50;;;1.10;;
2792;SDS011;1404;49.650;8.574;2022-07-04T12:39:30;2.20;;;0.90;;
2792;SDS011;1404;49.650;8.574;2022-07-04T12:42:06;8.60;;;1.50;;
2792;SDS011;1404;49.650;8.574;2022-07-04T12:44:32;1.73;;;1.10;;
2792;SDS011;1404;49.650;8.574;2022-07-04T12:46:58;2.30;;;1.20;;
2792;SDS011;1404;49.650;8.574;2022-07-04T12:49:25;2.83;;;1.07;;
2792;SDS011;1404;49.650;8.574;2022-07-04T12:51:51;1.33;;;1.20;;
2792;SDS011;1404;49.650;8.574;2022-07-04T12:54:17;3.93;;;1.30;;
2792;SDS011;1404;49.650;8.574;2022-07-04T12:56:45;6.53;;;1.23;;
2792;SDS011;1404;49.650;8.574;2022-07-04T12:59:12;1.17;;;1.07;;
2792;SDS011;1404;49.650;8.574;2022-07-04T13:01:41;3.07;;;0.90;;
2792;SDS011;1404;49.650;8.574;2022-07-04T13:04:07;2.50;;;1.00;;
2792;SDS011;1404;49.650;8.574;2022-07-04T13:06:34;3.33;;;1.30;;
2792;SDS011;1404;49.650;8.574;2022-07-04T13:09:00;0.90;;;0.90;;
2792;SDS011;1404;49.650;8.574;2022-07-04T13:11:26;2.03;;;1.30;;
2792;SDS011;1404;49.650;8.574;2022-07-04T13:14:11;2.90;;;1.33;;
2792;SDS011;1404;49.650;8.574;2022-07-04T13:16:37;3.10;;;1.33;;
2792;SDS011;1404;49.650;8.574;2022-07-04T13:19:03;2.00;;;1.47;;
2792;SDS011;1404;49.650;8.574;2022-07-04T13:21:30;4.90;;;1.40;;
2792;SDS011;1404;49.650;8.574;2022-07-04T13:23:56;1.10;;;0.97;;
2792;SDS011;1404;49.650;8.574;2022-07-04T13:26:22;1.97;;;1.13;;
2792;SDS011;1404;49.650;8.574;2022-07-04T13:28:48;2.27;;;1.40;;
2792;SDS011;1404;49.650;8.574;2022-07-04T13:31:14;3.17;;;1.17;;
2792;SDS011;1404;49.650;8.574;2022-07-04T13:33:40;2.40;;;1.47;;
2792;SDS011;1404;49.650;8.574;2022-07-04T13:36:06;1.40;;;1.30;;
2792;SDS011;1404;49.650;8.574;2022-07-04T13:38:32;1.13;;;1.00;;
2792;SDS011;1404;49.650;8.574;2022-07-04T13:40:58;1.50;;;1.10;;
2792;SDS011;1404;49.650;8.574;2022-07-04T13:43:25;1.00;;;0.87;;
2792;SDS011;1404;49.650;8.574;2022-07-04T13:45:53;2.17;;;1.40;;
2792;SDS011;1404;49.650;8.574;2022-07-04T13:48:19;1.10;;;0.90;;
2792;SDS011;1404;49.650;8.574;2022-07-04T13:50:45;1.27;;;1.03;;
2792;SDS011;1404;49.650;8.574;2022-07-04T13:53:11;1.67;;;1.40;;
2792;SDS011;1404;49.650;8.574;2022-07-04T13:55:37;2.50;;;1.10;;
2792;SDS011;1404;49.650;8.574;2022-07-04T13:58:04;2.87;;;1.70;;
2792;SDS011;1404;49.650;8.574;2022-07-04T14:00:30;2.20;;;1.00;;
2792;SDS011;1404;49.650;8.574;2022-07-04T14:02:56;1.50;;;1.00;;
2792;SDS011;1404;49.650;8.574;2022-07-04T14:05:22;1.27;;;0.90;;
2792;SDS011;1404;49.650;8.574;2022-07-04T14:07:49;2.83;;;1.17;;
2792;SDS011;1404;49.650;8.574;2022-07-04T14:10:15;4.07;;;1.20;;
2792;SDS011;1404;49.650;8.574;2022-07-04T14:12:41;1.33;;;0.90;;
2792;SDS011;1404;49.650;8.574;2022-07-04T14:15:07;4.00;;;1.10;;
2792;SDS011;1404;49.650;8.574;2022-07-04T14:17:35;3.87;;;1.53;;
2792;SDS011;1404;49.650;8.574;2022-07-04T14:20:02;1.30;;;1.20;;
2792;SDS011;1404;49.650;8.574;2022-07-04T14:22:28;1.93;;;1.17;;
2792;SDS011;1404;49.650;8.574;2022-07-04T14:24:54;1.73;;;0.97;;
2792;SDS011;1404;49.650;8.574;2022-07-04T14:27:20;2.67;;;0.77;;
2792;SDS011;1404;49.650;8.574;2022-07-04T14:29:47;1.97;;;1.37;;
2792;SDS011;1404;49.650;8.574;2022-07-04T14:32:13;1.47;;;1.10;;
2792;SDS011;1404;49.650;8.574;2022-07-04T14:34:39;3.07;;;1.00;;
2792;SDS011;1404;49.650;8.574;2022-07-04T14:37:05;2.73;;;1.10;;
2792;SDS011;1404;49.650;8.574;2022-07-04T14:39:31;4.00;;;0.90;;
2792;SDS011;1404;49.650;8.574;2022-07-04T14:41:57;5.20;;;1.00;;
2792;SDS011;1404;49.650;8.574;2022-07-04T14:44:23;2.43;;;1.10;;
2792;SDS011;1404;49.650;8.574;2022-07-04T14:46:49;3.10;;;1.00;;
2792;SDS011;1404;49.650;8.574;2022-07-04T14:49:15;1.07;;;1.00;;
2792;SDS011;1404;49.650;8.574;2022-07-04T14:51:41;2.77;;;0.80;;
2792;SDS011;1404;49.650;8.574;2022-07-04T14:54:07;3.60;;;1.50;;
2792;SDS011;1404;49.650;8.574;2022-07-04T14:56:33;4.10;;;0.87;;
2792;SDS011;1404;49.650;8.574;2022-07-04T14:58:59;1.20;;;0.80;;
2792;SDS011;1404;49.650;8.574;2022-07-04T15:01:25;2.20;;;1.20;;
2792;SDS011;1404;49.650;8.574;2022-07-04T15:03:52;2.20;;;1.17;;
2792;SDS011;1404;49.650;8.574;2022-07-04T15:06:19;2.63;;;1.00;;
2792;SDS011;1404;49.650;8.574;2022-07-04T15:08:44;1.00;;;0.70;;
2792;SDS011;1404;49.650;8.574;2022-07-04T15:11:10;3.33;;;1.00;;
2792;SDS011;1404;49.650;8.574;2022-07-04T15:13:37;1.40;;;1.00;;
2792;SDS011;1404;49.650;8.574;2022-07-04T15:16:03;2.20;;;1.00;;
2792;SDS011;1404;49.650;8.574;2022-07-04T15:18:29;6.10;;;1.13;;
2792;SDS011;1404;49.650;8.574;2022-07-04T15:20:55;9.87;;;1.50;;
2792;SDS011;1404;49.650;8.574;2022-07-04T15:23:40;5.23;;;1.00;;
2792;SDS011;1404;49.650;8.574;2022-07-04T15:26:25;2.90;;;0.80;;
2792;SDS011;1404;49.650;8.574;2022-07-04T15:28:51;1.53;;;0.60;;
2792;SDS011;1404;49.650;8.574;2022-07-04T15:31:17;5.43;;;1.10;;
2792;SDS011;1404;49.650;8.574;2022-07-04T15:33:43;3.03;;;1.00;;
2792;SDS011;1404;49.650;8.574;2022-07-04T15:36:09;1.23;;;1.13;;
2792;SDS011;1404;49.650;8.574;2022-07-04T15:38:35;1.00;;;1.00;;
2792;SDS011;1404;49.650;8.574;2022-07-04T15:41:01;3.47;;;0.80;;
2792;SDS011;1404;49.650;8.574;2022-07-04T15:43:30;5.33;;;1.20;;
2792;SDS011;1404;49.650;8.574;2022-07-04T15:45:56;2.10;;;1.40;;
2792;SDS011;1404;49.650;8.574;2022-07-04T15:48:23;2.00;;;0.93;;